sensor_id;sensor_type;location;lat;lon;timestamp;temperature;humidity
24482;DHT22;17862;50.846;5.716;2024-03-29T12:07:51;14.80;1.00
24482;DHT22;17862;50.846;5.716;2024-03-29T12:10:18;14.70;1.00
24482;DHT22;17862;50.846;5.716;2024-03-29T12:12:45;14.80;99.90
24482;DHT22;17862;50.846;5.716;2024-03-29T12:15:13;14.90;1.00
24482;DHT22;17862;50.846;5.716;2024-03-29T12:17:40;15.20;1.00
24482;DHT22;17862;50.846;5.716;2024-03-29T12:20:08;15.50;1.00
24482;DHT22;17862;50.846;5.716;2024-03-29T12:22:37;15.50;1.00
24482;DHT22;17862;50.846;5.716;2024-03-29T12:25:06;15.60;1.00
24482;DHT22;17862;50.846;5.716;2024-03-29T12:27:33;16.00;99.90
24482;DHT22;17862;50.846;5.716;2024-03-29T12:30:00;16.40;1.00
24482;DHT22;17862;50.846;5.716;2024-03-29T12:32:27;16.90;1.00
24482;DHT22;17862;50.846;5.716;2024-03-29T12:34:55;17.20;1.00
24482;DHT22;17862;50.846;5.716;2024-03-29T12:37:22;17.80;1.00
24482;DHT22;17862;50.846;5.716;2024-03-29T12:39:51;17.40;1.00
24482;DHT22;17862;50.846;5.716;2024-03-29T12:42:22;16.40;1.00
24482;DHT22;17862;50.846;5.716;2024-03-29T12:44:49;16.20;1.00
24482;DHT22;17862;50.846;5.716;2024-03-29T12:47:17;16.40;1.00
24482;DHT22;17862;50.846;5.716;2024-03-29T12:49:44;16.90;1.00
24482;DHT22;17862;50.846;5.716;2024-03-29T12:52:11;17.00;1.00
24482;DHT22;17862;50.846;5.716;2024-03-29T12:54:38;16.60;1.00
24482;DHT22;17862;50.846;5.716;2024-03-29T12:57:05;16.40;1.00
24482;DHT22;17862;50.846;5.716;2024-03-29T12:59:34;17.10;1.00
24482;DHT22;17862;50.846;5.716;2024-03-29T13:02:01;17.60;1.00
24482;DHT22;17862;50.846;5.716;2024-03-29T13:04:29;18.40;1.00
24482;DHT22;17862;50.846;5.716;2024-03-29T13:06:56;18.70;1.00
24482;DHT22;17862;50.846;5.716;2024-03-29T13:09:23;18.10;1.00
24482;DHT22;17862;50.846;5.716;2024-03-29T13:11:50;17.50;1.00
24482;DHT22;17862;50.846;5.716;2024-03-29T13:14:17;17.40;1.00
24482;DHT22;17862;50.846;5.716;2024-03-29T13:16:45;17.40;1.00
24482;DHT22;17862;50.846;5.716;2024-03-29T13:19:12;17.10;1.00
24482;DHT22;17862;50.846;5.716;2024-03-29T13:21:39;16.70;1.00
24482;DHT22;17862;50.846;5.716;2024-03-29T13:24:06;17.30;1.00
24482;DHT22;17862;50.846;5.716;2024-03-29T13:26:33;17.40;1.00
24482;DHT22;17862;50.846;5.716;2024-03-29T13:29:00;17.90;1.00
24482;DHT22;17862;50.846;5.716;2024-03-29T13:31:27;18.40;1.00
24482;DHT22;17862;50.846;5.716;2024-03-29T13:33:57;18.00;1.00
24482;DHT22;17862;50.846;5.716;2024-03-29T13:36:29;17.80;1.00
24482;DHT22;17862;50.846;5.716;2024-03-29T13:38:56;17.20;1.00
24482;DHT22;17862;50.846;5.716;2024-03-29T13:41:23;17.30;1.00
24482;DHT22;17862;50.846;5.716;2024-03-29T13:43:51;17.10;1.00
24482;DHT22;17862;50.846;5.716;2024-03-29T13:46:18;17.80;1.00
24482;DHT22;17862;50.846;5.716;2024-03-29T13:48:45;17.60;1.00
24482;DHT22;17862;50.846;5.716;2024-03-29T13:51:13;17.30;1.00
24482;DHT22;17862;50.846;5.716;2024-03-29T13:53:41;17.30;1.00
24482;DHT22;17862;50.846;5.716;2024-03-29T13:56:08;17.60;1.00
24482;DHT22;17862;50.846;5.716;2024-03-29T13:58:35;17.40;1.00
24482;DHT22;17862;50.846;5.716;2024-03-29T14:01:02;17.30;1.00
24482;DHT22;17862;50.846;5.716;2024-03-29T14:03:30;17.20;1.00
24482;DHT22;17862;50.846;5.716;2024-03-29T14:05:57;17.00;1.00
24482;DHT22;17862;50.846;5.716;2024-03-29T14:08:25;16.70;1.00
24482;DHT22;17862;50.846;5.716;2024-03-29T14:10:52;16.90;1.00
24482;DHT22;17862;50.846;5.716;2024-03-29T14:13:19;17.20;1.00
24482;DHT22;17862;50.846;5.716;2024-03-29T14:15:46;17.00;1.00
24482;DHT22;17862;50.846;5.716;2024-03-29T14:18:13;16.50;1.00
24482;DHT22;17862;50.846;5.716;2024-03-29T14:20:40;16.50;1.00
24482;DHT22;17862;50.846;5.716;2024-03-29T14:23:07;16.70;1.00
24482;DHT22;17862;50.846;5.716;2024-03-29T14:25:39;17.10;1.00
24482;DHT22;17862;50.846;5.716;2024-03-29T14:28:06;16.90;1.00
24482;DHT22;17862;50.846;5.716;2024-03-29T14:30:33;16.80;1.00
24482;DHT22;17862;50.846;5.716;2024-03-29T14:33:00;16.50;99.90
24482;DHT22;17862;50.846;5.716;2024-03-29T14:35:31;16.30;1.00
24482;DHT22;17862;50.846;5.716;2024-03-29T14:37:58;16.30;1.00
24482;DHT22;17862;50.846;5.716;2024-03-29T14:40:25;16.20;1.00
24482;DHT22;17862;50.846;5.716;2024-03-29T14:42:54;16.10;1.00
24482;DHT22;17862;50.846;5.716;2024-03-29T14:45:23;16.10;1.00
24482;DHT22;17862;50.846;5.716;2024-03-29T14:47:50;15.80;1.00
24482;DHT22;17862;50.846;5.716;2024-03-29T14:50:17;15.80;1.00
24482;DHT22;17862;50.846;5.716;2024-03-29T14:52:44;15.60;1.00
24482;DHT22;17862;50.846;5.716;2024-03-29T14:55:12;15.70;1.00
24482;DHT22;17862;50.846;5.716;2024-03-29T14:57:39;15.80;1.00
24482;DHT22;17862;50.846;5.716;2024-03-29T15:00:07;16.10;1.00
24482;DHT22;17862;50.846;5.716;2024-03-29T15:02:36;16.50;1.00
24482;DHT22;17862;50.846;5.716;2024-03-29T15:05:03;16.40;1.00
24482;DHT22;17862;50.846;5.716;2024-03-29T15:07:31;16.20;1.00
24482;DHT22;17862;50.846;5.716;2024-03-29T15:09:59;16.10;1.00
24482;DHT22;17862;50.846;5.716;2024-03-29T15:12:29;16.00;1.00
24482;DHT22;17862;50.846;5.716;2024-03-29T15:14:56;16.20;1.00
24482;DHT22;17862;50.846;5.716;2024-03-29T15:17:24;16.00;1.00
24482;DHT22;17862;50.846;5.716;2024-03-29T15:19:51;15.90;1.00
24482;DHT22;17862;50.846;5.716;2024-03-29T15:22:18;15.70;1.00
24482;DHT22;17862;50.846;5.716;2024-03-29T15:24:45;15.50;1.00
24482;DHT22;17862;50.846;5.716;2024-03-29T15:27:12;15.40;1.00
24482;DHT22;17862;50.846;5.716;2024-03-29T15:29:55;15.30;1.00
24482;DHT22;17862;50.846;5.716;2024-03-29T15:32:22;15.20;1.00
24482;DHT22;17862;50.846;5.716;2024-03-29T15:34:53;15.20;1.00
24482;DHT22;17862;50.846;5.716;2024-03-29T15:37:20;15.20;1.00
24482;DHT22;17862;50.846;5.716;2024-03-29T15:39:50;15.20;1.00
24482;DHT22;17862;50.846;5.716;2024-03-29T15:42:17;15.10;1.00
24482;DHT22;17862;50.846;5.716;2024-03-29T15:44:45;15.10;1.00
24482;DHT22;17862;50.846;5.716;2024-03-29T15:47:12;15.00;1.00
24482;DHT22;17862;50.846;5.716;2024-03-29T15:49:40;15.00;1.00
24482;DHT22;17862;50.846;5.716;2024-03-29T15:52:08;14.90;1.00
24482;DHT22;17862;50.846;5.716;2024-03-29T15:54:35;14.90;1.00
24482;DHT22;17862;50.846;5.716;2024-03-29T15:57:03;14.90;1.00
24482;DHT22;17862;50.846;5.716;2024-03-29T15:59:30;15.10;1.00
24482;DHT22;17862;50.846;5.716;2024-03-29T16:01:57;15.60;1.00
24482;DHT22;17862;50.846;5.716;2024-03-29T16:04:26;16.10;1.00
24482;DHT22;17862;50.846;5.716;2024-03-29T16:06:53;16.10;1.00
24482;DHT22;17862;50.846;5.716;2024-03-29T16:09:22;15.90;1.00
24482;DHT22;17862;50.846;5.716;2024-03-29T16:11:48;15.90;1.00
24482;DHT22;17862;50.846;5.716;2024-03-29T16:14:15;15.70;1.00
24482;DHT22;17862;50.846;5.716;2024-03-29T16:16:42;15.60;1.00
24482;DHT22;17862;50.846;5.716;2024-03-29T16:19:08;15.40;1.00
24482;DHT22;17862;50.846;5.716;2024-03-29T16:21:35;15.30;3.20
24482;DHT22;17862;50.846;5.716;2024-03-29T16:24:01;15.20;99.90
24482;DHT22;17862;50.846;5.716;2024-03-29T16:26:29;15.20;99.90
24482;DHT22;17862;50.846;5.716;2024-03-29T16:28:55;15.20;99.90
24482;DHT22;17862;50.846;5.716;2024-03-29T16:31:28;15.20;99.90
24482;DHT22;17862;50.846;5.716;2024-03-29T16:33:54;15.20;1.00
24482;DHT22;17862;50.846;5.716;2024-03-29T16:36:21;15.20;1.00
24482;DHT22;17862;50.846;5.716;2024-03-29T16:38:47;15.20;1.00
24482;DHT22;17862;50.846;5.716;2024-03-29T16:41:14;15.10;1.00
24482;DHT22;17862;50.846;5.716;2024-03-29T16:43:41;15.00;1.00
24482;DHT22;17862;50.846;5.716;2024-03-29T16:46:08;14.90;1.00
24482;DHT22;17862;50.846;5.716;2024-03-29T16:48:34;14.80;1.00
24482;DHT22;17862;50.846;5.716;2024-03-29T16:51:01;14.60;1.00
24482;DHT22;17862;50.846;5.716;2024-03-29T16:53:27;14.50;99.90
24482;DHT22;17862;50.846;5.716;2024-03-29T16:55:54;14.50;57.70
24482;DHT22;17862;50.846;5.716;2024-03-29T16:58:19;14.50;8.70
24482;DHT22;17862;50.846;5.716;2024-03-29T17:00:48;14.50;99.90
24482;DHT22;17862;50.846;5.716;2024-03-29T17:03:14;14.50;99.90
24482;DHT22;17862;50.846;5.716;2024-03-29T17:05:41;14.50;99.90
24482;DHT22;17862;50.846;5.716;2024-03-29T17:08:07;14.40;99.90
24482;DHT22;17862;50.846;5.716;2024-03-29T17:10:33;14.30;99.90
24482;DHT22;17862;50.846;5.716;2024-03-29T17:12:59;14.10;1.00
24482;DHT22;17862;50.846;5.716;2024-03-29T17:15:28;14.10;1.00
24482;DHT22;17862;50.846;5.716;2024-03-29T17:17:55;14.00;1.00
24482;DHT22;17862;50.846;5.716;2024-03-29T17:20:22;13.90;1.00
24482;DHT22;17862;50.846;5.716;2024-03-29T17:22:48;13.90;1.00
24482;DHT22;17862;50.846;5.716;2024-03-29T17:25:15;13.80;1.00
24482;DHT22;17862;50.846;5.716;2024-03-29T17:27:41;13.80;67.70
24482;DHT22;17862;50.846;5.716;2024-03-29T17:30:09;13.70;99.90
24482;DHT22;17862;50.846;5.716;2024-03-29T17:32:35;13.60;99.90
24482;DHT22;17862;50.846;5.716;2024-03-29T17:35:03;13.60;1.00
24482;DHT22;17862;50.846;5.716;2024-03-29T17:37:29;13.50;1.00
24482;DHT22;17862;50.846;5.716;2024-03-29T17:39:56;13.60;1.00
24482;DHT22;17862;50.846;5.716;2024-03-29T17:42:22;13.50;1.00
24482;DHT22;17862;50.846;5.716;2024-03-29T17:44:49;13.50;1.00
24482;DHT22;17862;50.846;5.716;2024-03-29T17:47:15;13.50;1.00
24482;DHT22;17862;50.846;5.716;2024-03-29T17:49:42;13.50;1.00
24482;DHT22;17862;50.846;5.716;2024-03-29T17:52:09;13.40;1.00
24482;DHT22;17862;50.846;5.716;2024-03-29T17:54:36;13.40;1.00
24482;DHT22;17862;50.846;5.716;2024-03-29T17:57:02;13.30;1.00
24482;DHT22;17862;50.846;5.716;2024-03-29T17:59:29;13.30;1.00
24482;DHT22;17862;50.846;5.716;2024-03-29T18:01:55;13.20;1.00
24482;DHT22;17862;50.846;5.716;2024-03-29T18:04:22;13.20;99.90
24482;DHT22;17862;50.846;5.716;2024-03-29T18:06:48;13.10;99.90
24482;DHT22;17862;50.846;5.716;2024-03-29T18:09:17;13.10;99.90
24482;DHT22;17862;50.846;5.716;2024-03-29T18:11:42;13.20;99.90
24482;DHT22;17862;50.846;5.716;2024-03-29T18:14:09;13.10;99.90
24482;DHT22;17862;50.846;5.716;2024-03-29T18:16:35;13.10;99.90
24482;DHT22;17862;50.846;5.716;2024-03-29T18:19:03;13.10;1.00
24482;DHT22;17862;50.846;5.716;2024-03-29T18:21:29;13.00;1.00
24482;DHT22;17862;50.846;5.716;2024-03-29T18:23:56;13.00;1.00
24482;DHT22;17862;50.846;5.716;2024-03-29T18:26:23;13.00;1.00
24482;DHT22;17862;50.846;5.716;2024-03-29T18:28:50;12.80;1.00
24482;DHT22;17862;50.846;5.716;2024-03-29T18:31:16;12.80;99.90
24482;DHT22;17862;50.846;5.716;2024-03-29T18:33:43;12.80;99.90
24482;DHT22;17862;50.846;5.716;2024-03-29T18:36:09;12.70;1.00
24482;DHT22;17862;50.846;5.716;2024-03-29T18:38:36;12.70;1.00
24482;DHT22;17862;50.846;5.716;2024-03-29T18:41:06;12.60;1.00
24482;DHT22;17862;50.846;5.716;2024-03-29T18:43:34;12.70;1.00
24482;DHT22;17862;50.846;5.716;2024-03-29T18:46:03;12.60;99.90
24482;DHT22;17862;50.846;5.716;2024-03-29T18:48:30;12.50;99.90
24482;DHT22;17862;50.846;5.716;2024-03-29T18:50:57;12.50;99.90
24482;DHT22;17862;50.846;5.716;2024-03-29T18:53:24;12.50;99.90
24482;DHT22;17862;50.846;5.716;2024-03-29T18:55:54;12.40;1.00
24482;DHT22;17862;50.846;5.716;2024-03-29T18:58:21;12.30;1.00
24482;DHT22;17862;50.846;5.716;2024-03-29T19:00:48;12.30;1.00
24482;DHT22;17862;50.846;5.716;2024-03-29T19:03:15;12.30;1.00
24482;DHT22;17862;50.846;5.716;2024-03-29T19:05:41;12.20;1.00
24482;DHT22;17862;50.846;5.716;2024-03-29T19:08:08;12.10;99.90
24482;DHT22;17862;50.846;5.716;2024-03-29T19:10:34;12.10;1.00
24482;DHT22;17862;50.846;5.716;2024-03-29T19:13:01;12.00;1.00
24482;DHT22;17862;50.846;5.716;2024-03-29T19:15:27;11.80;1.00
24482;DHT22;17862;50.846;5.716;2024-03-29T19:17:55;11.70;99.90
24482;DHT22;17862;50.846;5.716;2024-03-29T19:20:21;11.70;1.00
24482;DHT22;17862;50.846;5.716;2024-03-29T19:22:48;11.60;99.90
24482;DHT22;17862;50.846;5.716;2024-03-29T19:25:16;11.60;1.00
24482;DHT22;17862;50.846;5.716;2024-03-29T19:27:43;11.50;1.00
24482;DHT22;17862;50.846;5.716;2024-03-29T19:30:09;11.40;1.00
24482;DHT22;17862;50.846;5.716;2024-03-29T19:32:36;11.40;1.00
24482;DHT22;17862;50.846;5.716;2024-03-29T19:35:04;11.30;1.00
24482;DHT22;17862;50.846;5.716;2024-03-29T19:37:31;11.30;1.00
24482;DHT22;17862;50.846;5.716;2024-03-29T19:39:57;11.20;99.90
24482;DHT22;17862;50.846;5.716;2024-03-29T19:42:24;11.20;99.90
24482;DHT22;17862;50.846;5.716;2024-03-29T19:44:50;11.10;1.00
24482;DHT22;17862;50.846;5.716;2024-03-29T19:47:17;11.00;1.00
24482;DHT22;17862;50.846;5.716;2024-03-29T19:49:43;11.00;1.00
24482;DHT22;17862;50.846;5.716;2024-03-29T19:52:11;11.00;1.00
24482;DHT22;17862;50.846;5.716;2024-03-29T19:54:37;11.00;99.90
24482;DHT22;17862;50.846;5.716;2024-03-29T19:57:05;10.90;99.90
24482;DHT22;17862;50.846;5.716;2024-03-29T19:59:31;10.90;99.90
24482;DHT22;17862;50.846;5.716;2024-03-29T20:01:58;10.90;99.90
24482;DHT22;17862;50.846;5.716;2024-03-29T20:04:24;10.90;99.90
24482;DHT22;17862;50.846;5.716;2024-03-29T20:06:51;11.00;1.00
24482;DHT22;17862;50.846;5.716;2024-03-29T20:09:18;10.90;99.90
24482;DHT22;17862;50.846;5.716;2024-03-29T20:11:45;10.90;99.90
24482;DHT22;17862;50.846;5.716;2024-03-29T20:14:11;10.80;99.90
24482;DHT22;17862;50.846;5.716;2024-03-29T20:16:38;10.80;99.90
24482;DHT22;17862;50.846;5.716;2024-03-29T20:19:04;10.80;99.90
24482;DHT22;17862;50.846;5.716;2024-03-29T20:21:34;10.80;99.90
24482;DHT22;17862;50.846;5.716;2024-03-29T20:24:00;10.80;99.90
24482;DHT22;17862;50.846;5.716;2024-03-29T20:26:29;10.80;99.90
24482;DHT22;17862;50.846;5.716;2024-03-29T20:28:55;10.80;99.90
24482;DHT22;17862;50.846;5.716;2024-03-29T20:31:22;10.80;99.90
24482;DHT22;17862;50.846;5.716;2024-03-29T20:33:47;10.80;99.90
24482;DHT22;17862;50.846;5.716;2024-03-29T20:36:14;10.70;99.90
24482;DHT22;17862;50.846;5.716;2024-03-29T20:38:40;10.80;99.90
24482;DHT22;17862;50.846;5.716;2024-03-29T20:41:07;10.80;99.90
24482;DHT22;17862;50.846;5.716;2024-03-29T20:43:35;10.70;99.90
24482;DHT22;17862;50.846;5.716;2024-03-29T20:46:02;10.70;99.90
24482;DHT22;17862;50.846;5.716;2024-03-29T20:48:29;10.80;99.90
24482;DHT22;17862;50.846;5.716;2024-03-29T20:50:59;10.70;99.90
24482;DHT22;17862;50.846;5.716;2024-03-29T20:53:24;10.70;99.90
24482;DHT22;17862;50.846;5.716;2024-03-29T20:55:51;10.70;99.90
24482;DHT22;17862;50.846;5.716;2024-03-29T20:58:17;10.70;73.70
24482;DHT22;17862;50.846;5.716;2024-03-29T21:00:46;10.70;1.00
24482;DHT22;17862;50.846;5.716;2024-03-29T21:03:12;10.80;1.00
24482;DHT22;17862;50.846;5.716;2024-03-29T21:05:56;10.80;1.00
24482;DHT22;17862;50.846;5.716;2024-03-29T21:08:23;10.80;1.00
24482;DHT22;17862;50.846;5.716;2024-03-29T21:10:50;10.70;63.40
24482;DHT22;17862;50.846;5.716;2024-03-29T21:13:17;10.70;99.90
24482;DHT22;17862;50.846;5.716;2024-03-29T21:15:44;10.70;99.90
24482;DHT22;17862;50.846;5.716;2024-03-29T21:18:12;10.60;99.90
24482;DHT22;17862;50.846;5.716;2024-03-29T21:20:38;10.60;99.90
24482;DHT22;17862;50.846;5.716;2024-03-29T21:23:05;10.50;99.90
24482;DHT22;17862;50.846;5.716;2024-03-29T21:25:31;10.50;1.00
24482;DHT22;17862;50.846;5.716;2024-03-29T21:28:00;10.40;1.00
24482;DHT22;17862;50.846;5.716;2024-03-29T21:30:29;10.40;1.00
24482;DHT22;17862;50.846;5.716;2024-03-29T21:32:57;10.30;1.00
24482;DHT22;17862;50.846;5.716;2024-03-29T21:35:25;10.30;1.00
24482;DHT22;17862;50.846;5.716;2024-03-29T21:37:54;10.20;1.00
24482;DHT22;17862;50.846;5.716;2024-03-29T21:40:20;10.10;1.00
24482;DHT22;17862;50.846;5.716;2024-03-29T21:42:47;10.10;99.90
24482;DHT22;17862;50.846;5.716;2024-03-29T21:45:13;10.00;99.90
24482;DHT22;17862;50.846;5.716;2024-03-29T21:47:40;10.10;69.50
24482;DHT22;17862;50.846;5.716;2024-03-29T21:50:07;10.00;99.90
24482;DHT22;17862;50.846;5.716;2024-03-29T21:52:35;10.00;99.90
24482;DHT22;17862;50.846;5.716;2024-03-29T21:55:01;10.00;99.90
24482;DHT22;17862;50.846;5.716;2024-03-29T21:57:28;9.90;99.90
24482;DHT22;17862;50.846;5.716;2024-03-29T21:59:54;9.90;99.90
24482;DHT22;17862;50.846;5.716;2024-03-29T22:02:21;9.90;99.90
24482;DHT22;17862;50.846;5.716;2024-03-29T22:04:47;9.90;99.90
24482;DHT22;17862;50.846;5.716;2024-03-29T22:07:14;9.90;99.90
24482;DHT22;17862;50.846;5.716;2024-03-29T22:09:42;9.90;99.90
24482;DHT22;17862;50.846;5.716;2024-03-29T22:12:09;9.80;99.90
24482;DHT22;17862;50.846;5.716;2024-03-29T22:14:35;9.80;99.90
24482;DHT22;17862;50.846;5.716;2024-03-29T22:17:02;9.90;99.90
24482;DHT22;17862;50.846;5.716;2024-03-29T22:19:29;9.80;99.90
24482;DHT22;17862;50.846;5.716;2024-03-29T22:21:56;9.80;99.90
24482;DHT22;17862;50.846;5.716;2024-03-29T22:24:23;9.80;99.90
24482;DHT22;17862;50.846;5.716;2024-03-29T22:26:51;9.80;99.90
24482;DHT22;17862;50.846;5.716;2024-03-29T22:29:17;9.80;99.90
24482;DHT22;17862;50.846;5.716;2024-03-29T22:31:44;9.80;99.90
24482;DHT22;17862;50.846;5.716;2024-03-29T22:34:10;9.70;99.90
24482;DHT22;17862;50.846;5.716;2024-03-29T22:36:37;9.80;99.90
24482;DHT22;17862;50.846;5.716;2024-03-29T22:39:04;9.80;99.90
24482;DHT22;17862;50.846;5.716;2024-03-29T22:41:31;9.70;99.90
24482;DHT22;17862;50.846;5.716;2024-03-29T22:43:58;9.70;99.90
24482;DHT22;17862;50.846;5.716;2024-03-29T22:46:25;9.60;99.90
24482;DHT22;17862;50.846;5.716;2024-03-29T22:48:51;9.60;99.90
24482;DHT22;17862;50.846;5.716;2024-03-29T22:51:18;9.60;99.90
24482;DHT22;17862;50.846;5.716;2024-03-29T22:53:44;9.60;99.90
24482;DHT22;17862;50.846;5.716;2024-03-29T22:56:11;9.60;99.90
24482;DHT22;17862;50.846;5.716;2024-03-29T22:58:40;9.60;99.90
24482;DHT22;17862;50.846;5.716;2024-03-29T23:01:08;9.50;99.90
24482;DHT22;17862;50.846;5.716;2024-03-29T23:03:34;9.60;99.90
24482;DHT22;17862;50.846;5.716;2024-03-29T23:06:01;9.60;99.90
24482;DHT22;17862;50.846;5.716;2024-03-29T23:08:27;9.60;99.90
24482;DHT22;17862;50.846;5.716;2024-03-29T23:10:54;9.60;99.90
24482;DHT22;17862;50.846;5.716;2024-03-29T23:13:21;9.70;99.90
24482;DHT22;17862;50.846;5.716;2024-03-29T23:15:49;9.60;99.90
24482;DHT22;17862;50.846;5.716;2024-03-29T23:18:17;9.60;99.90
24482;DHT22;17862;50.846;5.716;2024-03-29T23:23:28;9.60;99.90
24482;DHT22;17862;50.846;5.716;2024-03-29T23:25:55;9.60;99.90
24482;DHT22;17862;50.846;5.716;2024-03-29T23:28:21;9.60;99.90
24482;DHT22;17862;50.846;5.716;2024-03-29T23:30:48;9.60;99.90
24482;DHT22;17862;50.846;5.716;2024-03-29T23:33:14;9.60;99.90
24482;DHT22;17862;50.846;5.716;2024-03-29T23:35:43;9.60;99.90
24482;DHT22;17862;50.846;5.716;2024-03-29T23:38:16;9.50;99.90
24482;DHT22;17862;50.846;5.716;2024-03-29T23:40:44;9.50;99.90
24482;DHT22;17862;50.846;5.716;2024-03-29T23:43:17;9.40;99.90
24482;DHT22;17862;50.846;5.716;2024-03-29T23:45:44;9.40;99.90
24482;DHT22;17862;50.846;5.716;2024-03-29T23:48:10;9.40;99.90
24482;DHT22;17862;50.846;5.716;2024-03-29T23:50:37;9.40;99.90
24482;DHT22;17862;50.846;5.716;2024-03-29T23:53:04;9.40;99.90
24482;DHT22;17862;50.846;5.716;2024-03-29T23:55:31;9.40;99.90
24482;DHT22;17862;50.846;5.716;2024-03-29T23:57:57;9.40;99.90
